Time;durP1;ratioP1;P1;durP2;ratioP2;P2;SDS_P1;SDS_P2;PMS_P1;PMS_P2;Temp;Humidity;BMP_temperature;BMP_pressure;BME280_temperature;BME280_humidity;BME280_pressure;Samples;Min_cycle;Max_cycle;Signal;HPM_P1;HPM_P2
2023/08/02 00:00:37;;;;;;;6.10;5.60;;;;;;;25.94;42.18;94446.09;6131728;28;109640;-65
2023/08/02 00:03:40;;;;;;;6.53;6.03;;;;;;;25.94;42.44;94443.41;6136469;28;108937;-62
2023/08/02 00:06:45;;;;;;;6.13;5.53;;;;;;;25.93;42.09;94443.78;6136697;28;109132;-61
2023/08/02 00:09:48;;;;;;;6.38;5.88;;;;;;;25.93;42.35;94444.53;6117071;28;109199;-61
2023/08/02 00:12:52;;;;;;;6.07;5.57;;;;;;;25.93;42.13;94441.09;6130304;28;109882;-61
2023/08/02 00:15:55;;;;;;;6.00;5.60;;;;;;;25.93;42.29;94444.53;6143566;28;109703;-63
2023/08/02 00:18:58;;;;;;;6.32;5.90;;;;;;;25.91;42.38;94456.75;6139543;28;109199;-61
2023/08/02 00:22:02;;;;;;;7.05;6.35;;;;;;;25.85;42.26;94447.38;6132527;28;109026;-61
2023/08/02 00:25:06;;;;;;;6.50;6.00;;;;;;;25.84;42.53;94445.81;6109833;28;109644;-61
2023/08/02 00:28:09;;;;;;;6.53;6.03;;;;;;;25.82;42.39;94443.50;6131095;28;109972;-61
2023/08/02 00:31:13;;;;;;;6.97;6.38;;;;;;;25.76;42.48;94447.56;6131283;28;109297;-61
2023/08/02 00:34:16;;;;;;;6.78;6.28;;;;;;;25.81;42.44;94443.84;6136324;28;109069;-62
2023/08/02 00:37:20;;;;;;;6.50;6.00;;;;;;;25.84;42.01;94451.19;6132467;28;109124;-62
2023/08/02 00:40:25;;;;;;;6.50;6.00;;;;;;;25.86;42.20;94460.44;6132490;28;109364;-61
2023/08/02 00:43:28;;;;;;;6.55;6.05;;;;;;;25.91;42.59;94459.44;6151461;28;109286;-61
2023/08/02 00:46:31;;;;;;;6.50;6.00;;;;;;;25.90;42.10;94457.88;6150892;28;109304;-62
2023/08/02 00:49:35;;;;;;;6.80;6.20;;;;;;;25.90;42.20;94460.53;6136949;28;109625;-61
2023/08/02 00:52:39;;;;;;;7.20;6.60;;;;;;;25.90;42.32;94453.28;6127029;28;110189;-61
2023/08/02 00:55:42;;;;;;;6.68;6.10;;;;;;;25.91;42.09;94451.38;6144720;28;109224;-61
2023/08/02 00:58:45;;;;;;;6.80;6.10;;;;;;;25.91;42.58;94448.69;6135676;28;109064;-61
2023/08/02 01:01:48;;;;;;;6.65;6.10;;;;;;;25.96;42.50;94453.81;6135443;28;109156;-62
2023/08/02 01:04:52;;;;;;;6.60;6.00;;;;;;;25.86;42.61;94452.38;6149034;28;109383;-61
2023/08/02 01:08:01;;;;;;;6.65;6.25;;;;;;;25.82;42.38;94458.78;6144687;28;109364;-61
2023/08/02 01:11:11;;;;;;;7.00;6.50;;;;;;;25.80;42.91;94453.00;6149716;28;109269;-70
2023/08/02 01:14:19;;;;;;;6.30;5.80;;;;;;;25.81;42.31;94451.88;6147604;28;111020;-70
2023/08/02 01:17:25;;;;;;;6.57;6.10;;;;;;;25.84;42.62;94449.28;6147025;28;109211;-72
2023/08/02 01:20:32;;;;;;;7.00;6.40;;;;;;;25.87;42.64;94442.44;6146979;28;109825;-69
2023/08/02 01:23:35;;;;;;;7.00;6.40;;;;;;;25.91;42.40;94436.06;6140982;28;109175;-70
2023/08/02 01:26:43;;;;;;;6.70;6.20;;;;;;;25.89;42.86;94440.22;6136256;28;109005;-71
2023/08/02 01:29:48;;;;;;;7.30;6.78;;;;;;;25.88;42.88;94438.66;6153303;28;109480;-70
2023/08/02 01:32:53;;;;;;;6.80;6.30;;;;;;;25.82;42.74;94437.34;6138002;28;109309;-71
2023/08/02 01:35:58;;;;;;;6.65;6.20;;;;;;;25.83;42.29;94439.69;6135853;28;109045;-71
2023/08/02 01:39:01;;;;;;;6.93;6.43;;;;;;;25.87;42.60;94434.41;6134355;28;109302;-72
2023/08/02 01:42:05;;;;;;;6.80;6.30;;;;;;;25.88;42.33;94442.13;6120147;28;109543;-70
2023/08/02 01:45:10;;;;;;;6.80;6.30;;;;;;;25.85;42.75;94434.75;6116897;28;109502;-70
2023/08/02 01:48:13;;;;;;;7.10;6.60;;;;;;;25.83;42.53;94433.53;6141125;28;109459;-70
2023/08/02 01:51:17;;;;;;;6.90;6.30;;;;;;;25.80;42.58;94429.66;6136415;28;109200;-70
2023/08/02 01:54:20;;;;;;;7.00;6.50;;;;;;;25.77;43.04;94433.03;6147600;28;110612;-70
2023/08/02 01:57:24;;;;;;;7.27;6.77;;;;;;;25.83;42.86;94433.53;6150519;28;110599;-70
2023/08/02 02:00:27;;;;;;;7.20;6.70;;;;;;;25.83;43.18;94438.91;6130328;28;109141;-70
2023/08/02 02:03:30;;;;;;;6.80;6.30;;;;;;;25.74;43.40;94435.63;6146097;28;110547;-70
2023/08/02 02:06:34;;;;;;;7.70;7.20;;;;;;;25.71;42.98;94433.59;6128218;28;109788;-70
2023/08/02 02:09:38;;;;;;;8.00;7.40;;;;;;;25.67;43.64;94445.03;6133262;28;108805;-71
2023/08/02 02:12:41;;;;;;;7.73;7.10;;;;;;;25.57;43.30;94442.06;6130518;28;110539;-70
2023/08/02 02:15:44;;;;;;;8.20;7.50;;;;;;;25.53;43.58;94433.91;6136835;28;109166;-70
2023/08/02 02:18:47;;;;;;;7.47;6.88;;;;;;;25.29;44.37;94436.69;6124453;28;109183;-71
2023/08/02 02:21:52;;;;;;;7.40;6.80;;;;;;;25.26;44.86;94438.16;6120635;28;109137;-72
2023/08/02 02:24:56;;;;;;;7.90;7.30;;;;;;;25.23;45.22;94446.09;6141114;28;109652;-70
2023/08/02 02:27:59;;;;;;;7.72;7.07;;;;;;;25.26;45.31;94448.09;6147044;28;110485;-70
2023/08/02 02:31:02;;;;;;;8.30;7.60;;;;;;;25.06;45.48;94449.81;6120851;28;110568;-71
2023/08/02 02:34:05;;;;;;;8.00;7.30;;;;;;;25.09;45.61;94465.97;6134404;28;109585;-71
2023/08/02 02:37:10;;;;;;;8.70;7.83;;;;;;;25.06;45.75;94461.31;6135730;28;109557;-70
2023/08/02 02:40:13;;;;;;;8.38;7.68;;;;;;;25.01;46.04;94460.75;6153597;28;109678;-69
2023/08/02 02:43:16;;;;;;;9.98;8.75;;;;;;;25.06;45.76;94461.31;6153265;28;110260;-69
2023/08/02 02:46:19;;;;;;;9.00;8.10;;;;;;;25.26;45.54;94462.25;6133930;28;109323;-71
2023/08/02 02:49:22;;;;;;;8.60;7.90;;;;;;;25.36;45.07;94469.81;6140022;28;109182;-69
2023/08/02 02:52:27;;;;;;;8.82;8.13;;;;;;;25.49;44.68;94473.25;6127802;28;109130;-71
2023/08/02 02:55:30;;;;;;;14.32;12.98;;;;;;;25.48;45.21;94476.25;6135250;28;109384;-71
2023/08/02 02:58:33;;;;;;;17.80;16.20;;;;;;;25.54;44.66;94477.56;6138810;28;109540;-72
2023/08/02 03:01:36;;;;;;;16.77;15.38;;;;;;;25.60;44.12;94485.03;6145211;28;109110;-70
2023/08/02 03:04:39;;;;;;;18.83;17.30;;;;;;;25.62;44.53;94485.47;6128415;28;109714;-71
2023/08/02 03:07:44;;;;;;;25.98;23.90;;;;;;;25.65;44.55;94479.41;6158247;28;110402;-70
2023/08/02 03:10:47;;;;;;;21.10;19.40;;;;;;;25.64;44.58;94475.19;6157463;28;109300;-71
2023/08/02 03:13:50;;;;;;;36.53;33.45;;;;;;;25.66;44.43;94467.56;6130303;28;110231;-70
2023/08/02 03:16:53;;;;;;;28.23;25.75;;;;;;;25.72;44.76;94478.84;6143271;28;109271;-70
2023/08/02 03:19:56;;;;;;;14.60;13.30;;;;;;;25.67;44.64;94479.84;6140390;28;109254;-70
2023/08/02 03:23:01;;;;;;;14.00;12.60;;;;;;;25.69;44.55;94480.28;6137229;28;109171;-69
2023/08/02 03:26:04;;;;;;;26.42;12.45;;;;;;;25.73;44.84;94479.63;6126162;28;109160;-69
2023/08/02 03:29:07;;;;;;;35.95;12.70;;;;;;;25.76;44.62;94482.41;6146877;28;110181;-69
2023/08/02 03:32:10;;;;;;;21.65;12.15;;;;;;;25.76;44.81;94482.41;6157210;28;109299;-61
2023/08/02 03:35:13;;;;;;;14.52;13.00;;;;;;;25.75;44.83;94480.84;6141715;28;109324;-64
2023/08/02 03:38:18;;;;;;;16.13;14.45;;;;;;;25.80;44.87;94483.25;6141450;28;109596;-60
2023/08/02 03:41:21;;;;;;;45.15;41.15;;;;;;;25.73;46.12;94499.16;6154022;28;109260;-60
2023/08/02 03:44:24;;;;;;;29.95;27.55;;;;;;;25.74;45.52;94489.22;6156595;28;110062;-62
2023/08/02 03:47:27;;;;;;;22.60;21.00;;;;;;;25.66;45.31;94480.97;6143244;28;110194;-60
2023/08/02 03:50:30;;;;;;;23.13;21.30;;;;;;;25.67;45.61;94485.22;6128544;28;109126;-60
2023/08/02 03:53:35;;;;;;;18.10;16.50;;;;;;;25.71;45.26;94489.88;6133723;28;109420;-60
2023/08/02 03:56:38;;;;;;;19.20;17.17;;;;;;;25.75;45.19;94496.16;6134950;28;110796;-60
2023/08/02 03:59:42;;;;;;;17.00;15.07;;;;;;;25.76;45.16;94492.34;6142390;28;109421;-60
2023/08/02 04:02:45;;;;;;;16.65;14.88;;;;;;;25.79;45.53;94492.44;6147447;28;109711;-61
2023/08/02 04:05:48;;;;;;;13.27;12.10;;;;;;;25.77;45.25;94493.91;6138972;28;109276;-61
2023/08/02 04:08:53;;;;;;;14.30;12.90;;;;;;;25.80;45.45;94494.00;6117410;28;110069;-60
2023/08/02 04:11:56;;;;;;;12.30;11.10;;;;;;;25.62;46.07;94495.41;6104614;28;109049;-61
2023/08/02 04:14:59;;;;;;;11.30;10.10;;;;;;;25.64;45.45;94506.56;6142647;28;109250;-61
2023/08/02 04:18:02;;;;;;;11.73;10.52;;;;;;;25.87;45.87;94504.09;6134923;28;110481;-61
2023/08/02 04:21:06;;;;;;;11.73;10.73;;;;;;;25.95;44.77;94492.47;6148748;28;109633;-60
2023/08/02 04:24:12;;;;;;;10.60;9.80;;;;;;;25.98;44.88;94491.78;6121700;28;109653;-60
2023/08/02 04:27:15;;;;;;;10.90;10.00;;;;;;;26.08;44.86;94499.34;6131308;28;109275;-61
2023/08/02 04:30:18;;;;;;;11.97;11.03;;;;;;;26.09;45.04;94494.75;6153592;28;109656;-60
2023/08/02 04:33:21;;;;;;;11.95;10.85;;;;;;;26.17;44.58;94497.25;6149498;28;110437;-61
2023/08/02 04:36:24;;;;;;;10.30;9.50;;;;;;;26.14;45.00;94492.59;6130591;28;109952;-60
2023/08/02 04:39:29;;;;;;;10.70;9.80;;;;;;;26.16;44.23;94489.56;6126805;28;110093;-60
2023/08/02 04:42:32;;;;;;;11.17;10.17;;;;;;;26.20;44.08;94490.44;6116591;28;109482;-66
2023/08/02 04:45:35;;;;;;;10.43;9.63;;;;;;;26.13;44.05;94496.41;6142493;28;110515;-64
2023/08/02 04:48:38;;;;;;;10.48;9.57;;;;;;;26.05;44.24;94500.03;6135425;28;109450;-66
2023/08/02 04:51:42;;;;;;;20.48;9.65;;;;;;;25.93;44.12;94497.38;6161085;28;109337;-66
2023/08/02 04:54:46;;;;;;;17.90;10.50;;;;;;;25.87;44.63;94499.53;6148604;28;109656;-65
2023/08/02 04:57:49;;;;;;;10.63;9.60;;;;;;;25.87;44.88;94506.78;6125519;28;109791;-65
2023/08/02 05:00:52;;;;;;;10.80;9.80;;;;;;;25.86;44.31;94507.91;6136115;28;109137;-65
2023/08/02 05:03:56;;;;;;;25.00;10.93;;;;;;;25.98;44.71;94507.84;6135973;28;109785;-65
2023/08/02 05:06:59;;;;;;;9.85;8.95;;;;;;;25.77;44.57;94509.97;6135991;28;109178;-66
2023/08/02 05:10:04;;;;;;;10.27;9.43;;;;;;;25.46;45.84;94510.66;6124126;28;110831;-65
2023/08/02 05:13:07;;;;;;;10.60;9.60;;;;;;;25.51;45.53;94513.09;6135886;28;109499;-65
2023/08/02 05:16:13;;;;;;;10.17;9.37;;;;;;;25.59;45.48;94515.63;6136165;28;109534;-65
2023/08/02 05:19:16;;;;;;;10.10;9.20;;;;;;;25.69;45.37;94509.78;6130021;28;110083;-65
2023/08/02 05:22:19;;;;;;;9.80;8.90;;;;;;;25.46;45.78;94499.94;6133313;28;109496;-66
2023/08/02 05:25:28;;;;;;;10.10;9.20;;;;;;;25.54;45.66;94507.03;6152253;28;109353;-66
2023/08/02 05:28:31;;;;;;;9.93;9.07;;;;;;;25.61;45.44;94517.97;6160203;28;110228;-65
2023/08/02 05:31:34;;;;;;;9.52;8.75;;;;;;;25.73;45.40;94535.91;6119013;28;109308;-65
2023/08/02 05:34:37;;;;;;;10.98;9.07;;;;;;;25.67;45.81;94538.03;6136495;28;108995;-66
2023/08/02 05:37:40;;;;;;;10.93;10.02;;;;;;;25.62;45.99;94530.25;6135591;28;109733;-66
2023/08/02 05:40:45;;;;;;;9.70;8.90;;;;;;;25.63;45.36;94526.44;6152650;28;109113;-66
2023/08/02 05:43:48;;;;;;;10.57;9.48;;;;;;;25.64;46.09;94531.47;6149334;28;110950;-65
2023/08/02 05:46:51;;;;;;;10.70;9.80;;;;;;;25.71;45.82;94543.50;6160023;28;110263;-66
2023/08/02 05:49:54;;;;;;;11.20;9.95;;;;;;;25.75;46.06;94542.50;6159553;28;109118;-66
2023/08/02 05:52:57;;;;;;;11.20;10.20;;;;;;;25.77;45.71;94552.88;6155490;28;109873;-60
2023/08/02 05:56:03;;;;;;;11.18;10.07;;;;;;;25.63;46.31;94554.03;6153981;28;110271;-61
2023/08/02 05:59:06;;;;;;;10.47;9.67;;;;;;;25.57;45.98;94560.75;6159151;28;109174;-61
2023/08/02 06:02:10;;;;;;;10.40;9.50;;;;;;;25.62;45.99;94557.03;6158818;28;109244;-60
2023/08/02 06:05:13;;;;;;;10.60;9.60;;;;;;;25.65;46.80;94556.34;6136355;28;109283;-60
2023/08/02 06:08:16;;;;;;;11.30;10.30;;;;;;;25.64;46.30;94549.44;6135181;28;110210;-61
2023/08/02 06:11:20;;;;;;;11.93;10.90;;;;;;;25.67;46.00;94554.13;6135531;28;109290;-60
2023/08/02 06:14:24;;;;;;;10.87;10.07;;;;;;;25.71;46.37;94556.88;6135533;28;110190;-60
2023/08/02 06:17:27;;;;;;;10.80;9.90;;;;;;;25.84;45.99;94564.56;6124942;28;109605;-60
2023/08/02 06:20:30;;;;;;;11.68;10.57;;;;;;;25.90;46.38;94557.06;6148482;28;109091;-61
2023/08/02 06:23:33;;;;;;;11.32;10.43;;;;;;;25.95;45.85;94559.50;6159420;28;110176;-60
2023/08/02 06:26:38;;;;;;;11.70;10.50;;;;;;;26.02;45.48;94565.06;6136574;28;109179;-60
2023/08/02 06:29:41;;;;;;;11.40;10.40;;;;;;;26.09;45.44;94567.16;6125336;28;110131;-61
2023/08/02 06:32:44;;;;;;;12.20;11.00;;;;;;;26.22;47.04;94558.72;6135210;28;109475;-60
2023/08/02 06:35:47;;;;;;;16.58;15.32;;;;;;;26.34;46.50;94554.38;6134324;28;109168;-61
2023/08/02 06:38:50;;;;;;;14.70;13.40;;;;;;;26.49;45.81;94559.00;6127892;28;109267;-63
2023/08/02 06:41:55;;;;;;;13.25;12.15;;;;;;;26.65;45.50;94549.06;6132990;28;108997;-60
2023/08/02 06:44:58;;;;;;;13.10;12.00;;;;;;;26.69;45.64;94549.94;6142203;28;109301;-60
2023/08/02 06:48:01;;;;;;;13.07;11.90;;;;;;;26.71;45.99;94545.00;6159049;28;109887;-61
2023/08/02 06:51:04;;;;;;;12.77;11.77;;;;;;;26.73;45.48;94550.03;6130627;28;109441;-61
2023/08/02 06:54:08;;;;;;;12.60;11.63;;;;;;;26.80;45.61;94550.97;6136433;28;109294;-61
2023/08/02 06:57:12;;;;;;;11.53;10.60;;;;;;;26.84;44.99;94545.69;6159930;28;109257;-62
2023/08/02 07:00:16;;;;;;;12.73;11.73;;;;;;;26.80;45.13;94540.22;6159402;28;109678;-60
2023/08/02 07:03:21;;;;;;;12.83;11.60;;;;;;;26.90;45.58;94543.53;6146510;28;110101;-68
2023/08/02 07:06:25;;;;;;;12.67;11.67;;;;;;;26.96;44.99;94542.91;6135851;28;110257;-65
2023/08/02 07:09:29;;;;;;;12.60;11.00;;;;;;;26.93;45.18;94548.19;6135677;28;109077;-65
2023/08/02 07:12:34;;;;;;;11.37;10.47;;;;;;;27.00;45.08;94553.72;6131278;28;109159;-66
2023/08/02 07:15:37;;;;;;;12.10;11.17;;;;;;;27.05;45.48;94542.69;6141107;28;109930;-67
2023/08/02 07:18:40;;;;;;;11.03;10.23;;;;;;;27.11;45.27;94533.25;6159920;28;111114;-66
2023/08/02 07:21:43;;;;;;;12.93;11.87;;;;;;;27.07;45.11;94548.53;6139215;28;110160;-65
2023/08/02 07:24:47;;;;;;;14.13;12.87;;;;;;;27.00;44.68;94542.97;6129515;28;109726;-65
2023/08/02 07:27:52;;;;;;;13.30;12.20;;;;;;;26.97;44.23;94547.13;6159227;28;109268;-65
2023/08/02 07:31:05;;;;;;;12.67;11.67;;;;;;;26.98;44.82;94555.97;6158709;28;109144;-65
2023/08/02 07:34:08;;;;;;;13.33;12.23;;;;;;;26.95;44.22;94546.72;6156986;28;110137;-65
2023/08/02 07:37:11;;;;;;;13.67;12.57;;;;;;;26.98;44.69;94545.22;6147894;28;109979;-65
2023/08/02 07:40:14;;;;;;;12.77;11.57;;;;;;;26.96;44.03;94553.63;6152358;28;109928;-64
2023/08/02 07:43:19;;;;;;;15.03;12.60;;;;;;;26.98;44.22;94550.59;6134978;28;109124;-64
2023/08/02 07:46:23;;;;;;;16.03;12.70;;;;;;;26.98;43.63;94540.63;6149940;28;109227;-63
2023/08/02 07:49:26;;;;;;;13.80;12.50;;;;;;;26.94;43.89;94550.53;6152742;28;110239;-64
2023/08/02 07:52:29;;;;;;;12.67;11.67;;;;;;;27.03;44.07;94547.63;6159166;28;110343;-64
2023/08/02 07:55:32;;;;;;;12.43;11.33;;;;;;;27.02;43.68;94543.41;6150598;28;110325;-64
2023/08/02 07:58:37;;;;;;;13.53;12.20;;;;;;;27.05;43.64;94545.38;6125272;28;109726;-64
2023/08/02 08:01:41;;;;;;;13.10;11.93;;;;;;;26.97;43.96;94539.09;6133691;28;109276;-64
2023/08/02 08:04:45;;;;;;;14.00;12.80;;;;;;;26.95;44.39;94544.03;6134814;28;110301;-64
2023/08/02 08:07:48;;;;;;;13.33;12.17;;;;;;;27.34;44.51;94541.44;6134941;28;109136;-64
2023/08/02 08:10:52;;;;;;;12.53;11.43;;;;;;;27.59;43.67;94547.34;6134736;28;110160;-64
2023/08/02 08:13:57;;;;;;;13.57;12.30;;;;;;;27.37;44.00;94533.47;6158854;28;109314;-67
2023/08/02 08:17:00;;;;;;;12.13;11.13;;;;;;;27.44;43.97;94533.63;6159135;28;110202;-68
2023/08/02 08:20:06;;;;;;;13.40;12.20;;;;;;;27.50;43.68;94538.72;6158840;28;109455;-68
2023/08/02 08:23:09;;;;;;;13.93;12.63;;;;;;;27.68;44.46;94534.47;6147807;28;109245;-67
2023/08/02 08:26:12;;;;;;;13.30;12.20;;;;;;;27.55;43.96;94549.94;6146066;28;109358;-68
2023/08/02 08:29:17;;;;;;;11.70;10.80;;;;;;;27.37;44.02;94543.44;6134139;28;109338;-64
2023/08/02 08:32:26;;;;;;;11.37;10.47;;;;;;;27.31;43.21;94542.94;6129473;28;109824;-66
2023/08/02 08:35:30;;;;;;;12.43;11.37;;;;;;;27.30;43.44;94540.59;6130229;28;109265;-65
2023/08/02 08:38:33;;;;;;;11.40;10.30;;;;;;;27.28;43.39;94545.56;6133949;28;109285;-64
2023/08/02 08:41:36;;;;;;;22.43;11.13;;;;;;;27.21;43.05;94538.06;6134580;28;110172;-67
2023/08/02 08:44:41;;;;;;;12.70;10.20;;;;;;;27.32;42.44;94539.13;6123603;28;109216;-66
2023/08/02 08:47:46;;;;;;;28.90;11.73;;;;;;;27.40;42.47;94534.69;6157349;28;108839;-68
2023/08/02 08:50:51;;;;;;;24.27;11.27;;;;;;;27.30;42.38;94527.94;6158517;28;110142;-68
2023/08/02 08:53:55;;;;;;;10.63;9.50;;;;;;;27.69;41.54;94530.66;6157784;28;109168;-68
2023/08/02 08:56:59;;;;;;;11.23;8.80;;;;;;;27.31;42.22;94532.19;6147227;28;110639;-68
2023/08/02 09:00:05;;;;;;;10.63;9.50;;;;;;;27.28;42.63;94526.75;6156515;28;109660;-67
2023/08/02 09:03:09;;;;;;;12.90;9.50;;;;;;;27.33;42.49;94524.53;6132883;28;109151;-67
2023/08/02 09:06:15;;;;;;;9.23;8.33;;;;;;;27.39;42.70;94525.84;6138310;28;109101;-67
2023/08/02 09:09:18;;;;;;;10.23;9.13;;;;;;;27.38;42.96;94537.69;6152318;28;110037;-68
2023/08/02 09:12:21;;;;;;;9.47;8.53;;;;;;;27.54;42.79;94526.13;6138171;28;109154;-68
2023/08/02 09:15:26;;;;;;;9.93;9.00;;;;;;;27.45;43.06;94527.13;6139104;28;109169;-67
2023/08/02 09:18:35;;;;;;;10.60;9.70;;;;;;;27.40;43.43;94518.56;6151305;28;109278;-67
2023/08/02 09:21:38;;;;;;;11.20;10.07;;;;;;;27.39;43.00;94522.38;6161830;28;109684;-67
2023/08/02 09:24:44;;;;;;;11.83;10.83;;;;;;;27.37;43.76;94522.72;6161503;28;109282;-59
2023/08/02 09:27:47;;;;;;;11.70;10.60;;;;;;;27.42;43.25;94511.69;6161202;28;109173;-59
2023/08/02 09:30:52;;;;;;;11.30;10.30;;;;;;;27.42;42.47;94519.75;6150937;28;109885;-60
2023/08/02 09:33:56;;;;;;;11.03;9.97;;;;;;;27.41;42.61;94526.28;6162000;28;110306;-60
2023/08/02 09:36:59;;;;;;;9.77;9.07;;;;;;;27.41;43.09;94518.22;6137225;28;110579;-60
2023/08/02 09:40:09;;;;;;;11.40;9.80;;;;;;;27.54;42.20;94518.81;6134856;28;109084;-64
2023/08/02 09:43:13;;;;;;;11.40;10.50;;;;;;;27.46;42.41;94506.38;6108544;28;109883;-59
2023/08/02 09:46:26;;;;;;;10.87;10.07;;;;;;;27.48;42.67;94512.19;6122041;28;109147;-60
2023/08/02 09:49:30;;;;;;;11.47;10.40;;;;;;;27.42;42.86;94517.06;6137032;28;109089;-59
2023/08/02 09:52:33;;;;;;;10.37;9.57;;;;;;;27.48;42.10;94511.41;6145707;28;109350;-60
2023/08/02 09:55:37;;;;;;;10.73;9.73;;;;;;;27.77;41.85;94519.69;6159449;28;109744;-59
2023/08/02 09:58:42;;;;;;;10.93;9.83;;;;;;;27.57;42.33;94522.75;6137799;28;109274;-59
2023/08/02 10:01:49;;;;;;;12.00;10.60;;;;;;;27.48;42.59;94506.03;6135868;28;109219;-60
2023/08/02 10:04:55;;;;;;;11.13;10.10;;;;;;;27.42;42.42;94506.31;6126149;28;109841;-61
2023/08/02 10:07:58;;;;;;;9.40;8.70;;;;;;;27.66;41.53;94509.84;6157881;28;109616;-60
2023/08/02 10:11:05;;;;;;;10.10;9.30;;;;;;;27.57;41.30;94514.69;6155527;28;109103;-60
2023/08/02 10:14:10;;;;;;;10.30;9.40;;;;;;;27.44;42.04;94514.81;6133476;28;109612;-62
2023/08/02 10:17:15;;;;;;;9.47;8.67;;;;;;;27.51;40.93;94513.38;6125801;28;109777;-60
2023/08/02 10:20:19;;;;;;;8.97;8.00;;;;;;;27.59;41.04;94517.78;6113014;28;110245;-60
2023/08/02 10:23:22;;;;;;;9.13;8.40;;;;;;;27.63;41.67;94505.19;6159515;28;109355;-60
2023/08/02 10:26:25;;;;;;;9.20;8.50;;;;;;;27.64;41.61;94504.84;6148799;28;109470;-60
2023/08/02 10:29:31;;;;;;;8.40;7.70;;;;;;;27.65;41.40;94498.31;6160799;28;110263;-60
2023/08/02 10:32:35;;;;;;;8.63;7.93;;;;;;;27.69;41.87;94499.16;6160768;28;111117;-61
2023/08/02 10:35:59;;;;;;;8.83;8.03;;;;;;;27.70;41.60;94489.97;6149368;28;110138;-61
2023/08/02 10:39:02;;;;;;;8.87;7.80;;;;;;;27.71;41.13;94502.28;6150029;28;110123;-61
2023/08/02 10:42:06;;;;;;;8.77;8.07;;;;;;;27.72;41.82;94494.97;6148556;28;110329;-61
2023/08/02 10:45:16;;;;;;;9.10;8.40;;;;;;;27.73;40.97;94486.59;6136741;28;110177;-61
2023/08/02 10:48:27;;;;;;;8.37;7.77;;;;;;;27.75;41.58;94486.22;6132465;28;110132;-61
2023/08/02 10:51:31;;;;;;;8.80;8.20;;;;;;;27.75;40.94;94492.38;6130964;28;109006;-61
2023/08/02 10:54:34;;;;;;;7.90;7.30;;;;;;;27.74;41.19;94496.19;6136692;28;110188;-61
2023/08/02 10:57:39;;;;;;;8.43;7.83;;;;;;;27.72;41.28;94493.09;6151438;28;108814;-61
2023/08/02 11:00:42;;;;;;;8.50;7.60;;;;;;;27.61;41.88;94497.47;6135992;28;110299;-62
2023/08/02 11:03:47;;;;;;;9.00;7.70;;;;;;;27.59;40.81;94485.53;6111224;28;109432;-61
2023/08/02 11:06:50;;;;;;;14.33;7.70;;;;;;;27.75;40.59;94497.75;6141969;28;110107;-61
2023/08/02 11:09:54;;;;;;;12.30;7.60;;;;;;;27.84;40.40;94497.53;6141494;28;109846;-61
2023/08/02 11:12:57;;;;;;;9.67;7.17;;;;;;;27.86;41.05;94481.84;6149767;28;110262;-61
2023/08/02 11:16:02;;;;;;;7.60;7.10;;;;;;;27.89;41.11;94480.34;6145180;28;109357;-60
2023/08/02 11:19:10;;;;;;;7.87;7.20;;;;;;;27.93;40.99;94481.97;6135736;28;108925;-60
2023/08/02 11:22:14;;;;;;;7.67;6.97;;;;;;;27.92;41.06;94485.03;6158597;28;110175;-63
2023/08/02 11:25:19;;;;;;;7.57;6.97;;;;;;;27.90;40.43;94476.53;6149940;28;109158;-60
2023/08/02 11:28:25;;;;;;;7.07;6.57;;;;;;;27.89;40.37;94478.47;6155875;28;109065;-61
2023/08/02 11:31:28;;;;;;;7.93;7.23;;;;;;;27.91;40.40;94486.94;6159167;28;109297;-60
2023/08/02 11:34:39;;;;;;;8.07;7.13;;;;;;;27.88;40.53;94484.94;6147956;28;109623;-61
2023/08/02 11:37:42;;;;;;;7.27;6.57;;;;;;;27.90;40.12;94480.00;6159046;28;109139;-60
2023/08/02 11:40:45;;;;;;;6.60;6.10;;;;;;;27.93;40.02;94478.50;6159239;28;109709;-60
2023/08/02 11:43:50;;;;;;;6.90;6.30;;;;;;;27.90;40.14;94477.31;6159375;28;109165;-60
2023/08/02 11:46:54;;;;;;;6.77;6.27;;;;;;;27.91;39.97;94470.81;6129271;28;109294;-62
2023/08/02 11:49:59;;;;;;;7.00;6.40;;;;;;;27.93;40.27;94462.38;6139067;28;109176;-60
2023/08/02 11:53:06;;;;;;;7.43;6.67;;;;;;;27.92;40.11;94468.91;6159523;28;110267;-61
2023/08/02 11:56:10;;;;;;;8.10;7.50;;;;;;;27.92;40.71;94456.22;6158822;28;108997;-61
2023/08/02 11:59:14;;;;;;;7.00;6.40;;;;;;;27.92;40.24;94455.44;6149299;28;110930;-61
2023/08/02 12:02:25;;;;;;;7.37;6.73;;;;;;;27.91;40.46;94461.97;6158230;28;109193;-61
2023/08/02 12:05:29;;;;;;;8.07;7.47;;;;;;;27.90;40.61;94455.03;6156029;28;109214;-60
2023/08/02 12:08:32;;;;;;;6.97;6.47;;;;;;;27.90;40.90;94450.44;6148392;28;109176;-61
2023/08/02 12:11:36;;;;;;;7.60;6.90;;;;;;;27.87;40.10;94448.44;6158582;28;109245;-60
2023/08/02 12:14:39;;;;;;;7.33;6.50;;;;;;;27.91;40.88;94451.97;6158721;28;109314;-61
2023/08/02 12:17:42;;;;;;;9.00;6.50;;;;;;;27.92;40.61;94452.75;6110620;28;109286;-60
2023/08/02 12:20:48;;;;;;;7.20;6.60;;;;;;;27.91;40.25;94445.81;6108622;28;109038;-60
2023/08/02 12:23:51;;;;;;;6.97;6.47;;;;;;;27.90;40.17;94441.59;6134515;28;109138;-60
2023/08/02 12:26:54;;;;;;;7.53;6.80;;;;;;;27.89;40.65;94440.00;6152356;28;109299;-60
2023/08/02 12:30:10;;;;;;;7.70;6.90;;;;;;;27.87;40.58;94440.34;6156756;28;109392;-60
2023/08/02 12:33:13;;;;;;;7.23;6.60;;;;;;;27.89;40.39;94435.44;6123884;28;111524;-60
2023/08/02 12:36:26;;;;;;;7.40;6.80;;;;;;;27.88;40.23;94430.38;6144665;28;109078;-60
2023/08/02 12:39:29;;;;;;;7.27;6.67;;;;;;;27.88;40.44;94433.06;6134416;28;109595;-61
2023/08/02 12:42:33;;;;;;;7.30;6.70;;;;;;;27.91;40.41;94424.31;6125082;28;109167;-62
2023/08/02 12:45:39;;;;;;;7.70;7.00;;;;;;;27.93;41.16;94433.56;6133851;28;110359;-60
2023/08/02 12:48:42;;;;;;;7.50;6.73;;;;;;;27.94;40.46;94424.38;6133892;28;108892;-60
2023/08/02 12:51:47;;;;;;;6.70;6.17;;;;;;;27.95;41.04;94425.91;6153966;28;110190;-60
2023/08/02 12:54:50;;;;;;;7.43;6.83;;;;;;;27.92;40.63;94421.25;6151851;28;109268;-60
2023/08/02 12:57:53;;;;;;;7.47;6.77;;;;;;;27.93;40.47;94412.06;6138222;28;109725;-60
2023/08/02 13:00:56;;;;;;;6.30;5.70;;;;;;;27.96;40.02;94405.16;6145790;28;110350;-61
2023/08/02 13:04:00;;;;;;;7.47;6.87;;;;;;;27.95;39.75;94407.09;6158967;28;109122;-61
2023/08/02 13:07:04;;;;;;;7.27;6.67;;;;;;;27.93;40.01;94393.22;6126520;28;109187;-61
2023/08/02 13:10:08;;;;;;;7.20;6.50;;;;;;;27.96;40.34;94405.16;6138335;28;109047;-61
2023/08/02 13:13:11;;;;;;;6.97;6.47;;;;;;;27.94;40.43;94402.84;6138065;28;110104;-61
2023/08/02 13:16:14;;;;;;;7.37;6.77;;;;;;;27.92;40.61;94404.34;6132663;28;109067;-61
2023/08/02 13:19:17;;;;;;;7.80;7.20;;;;;;;27.96;39.81;94405.16;6132767;28;110289;-61
2023/08/02 13:22:22;;;;;;;7.70;7.10;;;;;;;27.95;39.98;94407.09;6137960;28;109214;-65
2023/08/02 13:25:26;;;;;;;7.07;6.47;;;;;;;27.95;40.53;94400.94;6140166;28;109474;-61
2023/08/02 13:28:29;;;;;;;7.70;7.10;;;;;;;27.97;40.28;94398.66;6151229;28;109639;-61
2023/08/02 13:31:32;;;;;;;7.43;6.83;;;;;;;27.94;40.70;94388.63;6150455;28;109574;-61
2023/08/02 13:34:36;;;;;;;7.30;6.60;;;;;;;27.94;40.87;94389.41;6136941;28;109126;-61
2023/08/02 13:37:41;;;;;;;7.57;6.97;;;;;;;27.93;40.18;94387.84;6157231;28;109859;-61
2023/08/02 13:40:44;;;;;;;7.20;6.50;;;;;;;27.96;40.78;94400.56;6147567;28;109827;-61
2023/08/02 13:43:47;;;;;;;6.90;6.40;;;;;;;27.93;40.16;94395.91;6137594;28;110240;-61
2023/08/02 13:46:50;;;;;;;7.53;7.00;;;;;;;27.94;40.91;94392.09;6143320;28;109538;-61
2023/08/02 13:49:55;;;;;;;7.03;6.33;;;;;;;27.96;40.08;94389.81;6137183;28;109172;-62
2023/08/02 13:53:00;;;;;;;7.30;6.70;;;;;;;27.95;40.80;94382.88;6127995;28;109413;-62
2023/08/02 13:56:03;;;;;;;7.73;7.13;;;;;;;27.93;40.29;94382.47;6136901;28;109287;-61
2023/08/02 13:59:06;;;;;;;6.70;6.20;;;;;;;27.98;40.86;94386.75;6137183;28;109336;-61
2023/08/02 14:02:10;;;;;;;7.77;7.17;;;;;;;27.95;40.42;94382.88;6141189;28;110421;-62
2023/08/02 14:05:13;;;;;;;7.07;6.43;;;;;;;27.98;40.26;94376.00;6155358;28;110273;-68
2023/08/02 14:08:17;;;;;;;6.83;6.23;;;;;;;27.98;40.40;94381.38;6159521;28;109115;-66